Time;durP1;ratioP1;P1;durP2;ratioP2;P2;SDS_P1;SDS_P2;PMS_P1;PMS_P2;Temp;Humidity;BMP_temperature;BMP_pressure;BME280_temperature;BME280_humidity;BME280_pressure;Samples;Min_cycle;Max_cycle;Signal;HPM_P1;HPM_P2
2023/06/12 00:00:33;;;;;;;6.57;4.97;;;23.30;99.90;;;;;;5056959;28;20053;-77
2023/06/12 00:03:02;;;;;;;6.50;4.80;;;23.40;99.90;;;;;;5065075;28;20047;-77
2023/06/12 00:05:30;;;;;;;9.35;5.00;;;23.30;99.90;;;;;;5067836;28;20054;-77
2023/06/12 00:07:57;;;;;;;6.15;4.75;;;23.40;99.90;;;;;;5066659;28;20037;-77
2023/06/12 00:10:25;;;;;;;9.02;5.20;;;23.40;99.90;;;;;;5068585;28;20052;-76
2023/06/12 00:12:54;;;;;;;9.57;5.07;;;23.30;99.90;;;;;;5068865;28;20094;-76
2023/06/12 00:15:21;;;;;;;8.23;5.43;;;23.40;99.90;;;;;;5069227;28;20055;-76
2023/06/12 00:17:50;;;;;;;8.75;5.32;;;23.50;99.90;;;;;;5066478;28;20047;-76
2023/06/12 00:20:17;;;;;;;7.40;5.35;;;23.40;99.90;;;;;;5068253;28;20072;-76
2023/06/12 00:22:45;;;;;;;8.88;5.32;;;23.50;99.90;;;;;;5068631;28;20419;-76
2023/06/12 00:25:12;;;;;;;8.63;5.43;;;23.50;99.90;;;;;;5068733;28;20048;-77
2023/06/12 00:27:40;;;;;;;8.35;5.85;;;23.50;99.90;;;;;;5064984;28;20037;-76
2023/06/12 00:30:08;;;;;;;10.57;5.68;;;23.60;99.90;;;;;;5068833;28;20043;-76
2023/06/12 00:32:36;;;;;;;7.63;5.65;;;23.60;99.90;;;;;;5068729;28;20043;-76
2023/06/12 00:35:06;;;;;;;6.30;5.70;;;23.60;99.90;;;;;;5047939;28;20059;-77
2023/06/12 00:37:34;;;;;;;8.75;6.07;;;23.70;99.90;;;;;;5071697;28;20040;-76
2023/06/12 00:40:01;;;;;;;7.07;6.28;;;23.60;99.90;;;;;;5069171;28;20064;-77
2023/06/12 00:42:31;;;;;;;9.23;6.18;;;23.60;99.90;;;;;;5070504;28;20040;-77
2023/06/12 00:44:59;;;;;;;7.78;6.50;;;23.70;99.90;;;;;;5061952;28;20443;-77
2023/06/12 00:47:27;;;;;;;8.15;6.53;;;23.70;99.90;;;;;;5067928;28;20446;-76
2023/06/12 00:49:57;;;;;;;7.18;6.47;;;23.00;99.90;;;;;;5071579;28;20464;-77
2023/06/12 00:52:29;;;;;;;11.48;7.07;;;22.70;99.90;;;;;;5066007;28;20106;-76
2023/06/12 00:54:59;;;;;;;10.07;6.13;;;22.80;99.90;;;;;;5051662;28;20536;-77
2023/06/12 00:57:27;;;;;;;11.25;6.95;;;22.90;99.90;;;;;;5070896;28;20067;-77
2023/06/12 00:59:55;;;;;;;8.27;6.28;;;22.90;99.90;;;;;;5072158;28;20041;-77
2023/06/12 01:02:23;;;;;;;8.30;6.65;;;23.00;99.90;;;;;;5070737;28;20110;-77
2023/06/12 01:04:52;;;;;;;10.55;6.65;;;23.00;99.90;;;;;;5071246;28;20040;-77
2023/06/12 01:07:29;;;;;;;10.93;6.43;;;23.00;99.90;;;;;;5052726;28;20529;-77
2023/06/12 01:10:11;;;;;;;11.90;6.45;;;23.10;99.90;;;;;;5053251;28;20044;-77
2023/06/12 01:12:39;;;;;;;7.50;6.13;;;23.20;99.90;;;;;;5052944;28;20047;-77
2023/06/12 01:15:08;;;;;;;12.93;7.72;;;23.20;99.90;;;;;;5051556;28;20496;-77
2023/06/12 01:17:35;;;;;;;8.98;6.13;;;23.30;99.90;;;;;;5045976;28;20043;-77
2023/06/12 01:20:11;;;;;;;8.25;6.57;;;23.30;99.90;;;;;;5059732;28;20400;-77
2023/06/12 01:22:44;;;;;;;8.13;6.43;;;23.30;99.90;;;;;;5060790;28;20150;-77
2023/06/12 01:25:42;;;;;;;7.82;6.38;;;23.30;99.90;;;;;;5070417;28;20226;-77
2023/06/12 01:28:28;;;;;;;10.18;6.20;;;23.40;99.90;;;;;;5022591;28;20040;-76
2023/06/12 01:31:13;;;;;;;9.10;5.90;;;23.30;99.90;;;;;;5070371;28;20040;-77
2023/06/12 01:34:02;;;;;;;11.13;6.38;;;23.30;99.90;;;;;;5059188;28;20067;-77
2023/06/12 01:36:36;;;;;;;8.10;5.95;;;23.40;99.90;;;;;;5070403;28;20063;-77
2023/06/12 01:39:05;;;;;;;8.63;5.88;;;23.40;99.90;;;;;;5044293;28;20049;-77
2023/06/12 01:41:34;;;;;;;8.20;5.95;;;18.70;99.90;;;;;;5067405;28;20044;-76
2023/06/12 01:44:09;;;;;;;10.65;6.30;;;18.70;99.90;;;;;;5057255;28;20047;-77
2023/06/12 01:46:37;;;;;;;9.02;5.90;;;18.70;99.90;;;;;;5070391;28;20054;-77
2023/06/12 01:49:07;;;;;;;10.35;6.20;;;18.70;99.90;;;;;;5070422;28;20075;-77
2023/06/12 01:51:36;;;;;;;8.68;5.38;;;18.60;99.90;;;;;;5067491;28;20036;-77
2023/06/12 01:54:04;;;;;;;8.05;5.25;;;18.60;99.90;;;;;;5070765;28;20507;-77
2023/06/12 01:56:31;;;;;;;6.80;5.55;;;18.60;99.90;;;;;;5052379;28;20671;-77
2023/06/12 01:58:59;;;;;;;7.03;5.38;;;18.70;99.90;;;;;;5051327;28;20513;-77
2023/06/12 02:01:39;;;;;;;8.50;5.22;;;18.60;99.90;;;;;;5049557;28;20041;-77
2023/06/12 02:04:08;;;;;;;6.93;4.63;;;18.60;99.90;;;;;;5049891;28;20064;-76
2023/06/12 02:06:35;;;;;;;6.55;4.88;;;18.60;99.90;;;;;;5063450;28;20393;-78
2023/06/12 02:09:03;;;;;;;8.38;5.03;;;18.60;99.90;;;;;;5049465;28;20047;-77
2023/06/12 02:11:32;;;;;;;5.28;4.55;;;18.60;99.90;;;;;;5067304;28;20044;-76
2023/06/12 02:13:59;;;;;;;7.20;5.20;;;18.60;99.90;;;;;;5069640;28;20153;-77
2023/06/12 02:16:27;;;;;;;9.73;4.82;;;18.60;99.90;;;;;;5058500;28;20045;-77
2023/06/12 02:18:55;;;;;;;6.45;4.43;;;18.60;99.90;;;;;;5068771;28;20079;-77
2023/06/12 02:21:24;;;;;;;6.93;5.10;;;18.60;99.90;;;;;;5057757;28;20048;-76
2023/06/12 02:23:52;;;;;;;7.00;5.18;;;18.60;99.90;;;;;;5051915;28;20487;-76
2023/06/12 02:26:20;;;;;;;5.93;4.80;;;18.60;99.90;;;;;;5050126;28;20064;-78
2023/06/12 02:29:06;;;;;;;6.40;4.75;;;18.60;99.90;;;;;;5050268;28;20047;-77
2023/06/12 02:31:36;;;;;;;7.93;5.00;;;18.60;99.90;;;;;;5066477;28;20048;-77
2023/06/12 02:34:04;;;;;;;9.35;5.75;;;18.60;99.90;;;;;;5059877;28;20563;-77
2023/06/12 02:36:33;;;;;;;9.88;6.10;;;18.60;99.90;;;;;;5051291;28;20074;-77
2023/06/12 02:39:02;;;;;;;5.82;5.03;;;18.60;99.90;;;;;;5064584;28;20487;-76
2023/06/12 02:41:30;;;;;;;6.82;5.40;;;18.60;99.90;;;;;;5047431;28;20040;-77
2023/06/12 02:43:57;;;;;;;7.93;4.75;;;18.50;99.90;;;;;;5066941;28;20052;-77
2023/06/12 02:46:25;;;;;;;5.07;4.53;;;18.40;99.90;;;;;;5049312;28;20056;-76
2023/06/12 02:48:52;;;;;;;8.30;4.60;;;18.40;99.90;;;;;;5067614;28;20075;-77
2023/06/12 02:51:21;;;;;;;5.35;4.32;;;18.30;99.90;;;;;;5047640;28;20139;-77
2023/06/12 02:53:50;;;;;;;7.00;5.35;;;18.30;99.90;;;;;;5067564;28;20057;-77
2023/06/12 02:56:18;;;;;;;7.88;4.82;;;18.20;99.90;;;;;;5069408;28;20091;-77
2023/06/12 02:58:46;;;;;;;6.93;5.53;;;18.20;99.90;;;;;;5067331;28;20044;-77
2023/06/12 03:01:16;;;;;;;5.38;4.65;;;18.30;99.90;;;;;;5049828;28;20099;-77
2023/06/12 03:03:45;;;;;;;7.80;5.30;;;18.30;99.90;;;;;;5068291;28;20128;-77
2023/06/12 03:06:13;;;;;;;8.15;5.65;;;18.30;99.90;;;;;;5068212;28;20062;-77
2023/06/12 03:08:41;;;;;;;7.97;5.55;;;18.20;99.90;;;;;;5064476;28;20095;-77
2023/06/12 03:11:10;;;;;;;8.18;6.43;;;18.20;99.90;;;;;;5045344;28;20124;-78
2023/06/12 03:13:39;;;;;;;9.13;6.63;;;18.20;99.90;;;;;;5069263;28;20032;-78
2023/06/12 03:16:09;;;;;;;13.88;6.03;;;18.30;99.90;;;;;;5041643;28;20513;-77
2023/06/12 03:18:37;;;;;;;7.45;5.97;;;18.30;99.90;;;;;;5049047;28;20045;-77
2023/06/12 03:21:04;;;;;;;6.82;6.05;;;18.40;99.90;;;;;;5046469;28;20087;-78
2023/06/12 03:23:32;;;;;;;6.80;6.10;;;18.30;99.90;;;;;;5066509;28;20101;-77
2023/06/12 03:26:00;;;;;;;10.63;6.40;;;18.30;99.90;;;;;;5068695;28;20036;-77
2023/06/12 03:28:29;;;;;;;7.30;5.80;;;18.40;99.90;;;;;;5068757;28;20048;-77
2023/06/12 03:30:57;;;;;;;8.35;6.00;;;18.40;99.90;;;;;;5050551;28;20040;-77
2023/06/12 03:33:24;;;;;;;8.88;5.97;;;18.40;99.90;;;;;;5041452;28;20071;-77
2023/06/12 03:35:52;;;;;;;7.40;6.63;;;18.40;99.90;;;;;;5067598;28;20068;-77
2023/06/12 03:38:19;;;;;;;8.10;6.75;;;18.40;99.90;;;;;;5062980;28;20048;-76
2023/06/12 03:40:47;;;;;;;9.40;7.07;;;18.40;99.90;;;;;;5045137;28;20052;-77
2023/06/12 03:43:15;;;;;;;10.10;7.30;;;18.30;99.90;;;;;;5045123;28;20065;-76
2023/06/12 03:45:44;;;;;;;10.82;8.23;;;18.30;99.90;;;;;;5065023;28;20044;-76
2023/06/12 03:48:12;;;;;;;9.57;8.02;;;18.20;99.90;;;;;;5056011;28;20068;-76
2023/06/12 03:50:39;;;;;;;10.60;7.63;;;18.20;99.90;;;;;;5057825;28;20114;-76
2023/06/12 03:53:07;;;;;;;11.77;7.88;;;18.20;99.90;;;;;;5048521;28;20048;-76
2023/06/12 03:55:35;;;;;;;12.77;8.18;;;18.10;99.90;;;;;;5048097;28;20036;-77
2023/06/12 03:58:03;;;;;;;9.88;7.95;;;18.10;99.90;;;;;;5047634;28;20443;-77
2023/06/12 04:00:31;;;;;;;8.85;7.35;;;18.10;99.90;;;;;;5067873;28;20040;-78
2023/06/12 04:03:01;;;;;;;11.65;7.05;;;18.00;99.90;;;;;;5047475;28;20484;-77
2023/06/12 04:05:28;;;;;;;8.10;6.22;;;17.90;99.90;;;;;;5048817;28;20052;-78
2023/06/12 04:07:56;;;;;;;9.00;6.32;;;17.90;99.90;;;;;;5046397;28;20045;-78
2023/06/12 04:10:24;;;;;;;7.85;5.05;;;17.80;99.90;;;;;;5066189;28;20044;-77
2023/06/12 04:12:51;;;;;;;8.57;5.30;;;17.70;99.90;;;;;;5065753;28;20153;-77
2023/06/12 04:15:19;;;;;;;7.00;5.63;;;17.60;99.90;;;;;;5041638;28;20561;-77
2023/06/12 04:17:46;;;;;;;9.02;6.63;;;17.60;99.90;;;;;;5069842;28;20588;-78
2023/06/12 04:20:15;;;;;;;9.98;6.47;;;17.60;99.90;;;;;;5075392;28;20063;-77
2023/06/12 04:22:47;;;;;;;9.43;6.30;;;17.60;99.90;;;;;;5074572;28;20061;-77
2023/06/12 04:25:15;;;;;;;8.38;6.28;;;17.60;99.90;;;;;;5075738;28;20067;-76
2023/06/12 04:27:43;;;;;;;8.02;5.47;;;17.60;99.90;;;;;;5051972;28;20094;-76
2023/06/12 04:30:15;;;;;;;7.55;6.72;;;17.60;99.90;;;;;;5073471;28;20051;-77
2023/06/12 04:32:43;;;;;;;8.98;5.55;;;17.50;99.90;;;;;;5056547;28;20047;-77
2023/06/12 04:35:10;;;;;;;7.97;4.53;;;17.50;99.90;;;;;;5066224;28;20094;-78
2023/06/12 04:37:39;;;;;;;7.75;4.55;;;17.40;99.90;;;;;;5049032;28;20132;-78
2023/06/12 04:40:11;;;;;;;9.60;4.75;;;17.40;99.90;;;;;;5046645;28;20043;-77
2023/06/12 04:42:38;;;;;;;7.40;4.25;;;17.40;99.90;;;;;;5046775;28;20142;-77
2023/06/12 04:45:08;;;;;;;7.05;4.35;;;17.30;99.90;;;;;;5057642;28;20055;-78
2023/06/12 04:47:37;;;;;;;7.10;5.10;;;17.10;99.90;;;;;;5042257;28;20044;-78
2023/06/12 04:50:05;;;;;;;9.07;4.57;;;17.00;99.90;;;;;;5067127;28;20151;-77
2023/06/12 04:52:34;;;;;;;7.65;5.00;;;17.00;99.90;;;;;;5048331;28;20660;-77
2023/06/12 04:55:03;;;;;;;7.60;4.68;;;16.90;99.90;;;;;;5044443;28;20974;-77
2023/06/12 04:57:31;;;;;;;11.60;4.80;;;16.80;99.90;;;;;;5063776;28;20064;-78
2023/06/12 04:59:59;;;;;;;8.18;5.07;;;16.80;99.90;;;;;;5067443;28;20037;-77
2023/06/12 05:02:26;;;;;;;9.50;4.07;;;16.70;99.90;;;;;;5056498;28;20041;-78
2023/06/12 05:04:54;;;;;;;6.57;4.75;;;16.60;99.90;;;;;;5067171;28;20124;-78
2023/06/12 05:07:21;;;;;;;7.90;4.63;;;16.60;99.90;;;;;;5057559;28;20060;-78
2023/06/12 05:09:54;;;;;;;5.35;3.83;;;16.50;99.90;;;;;;5065397;28;20082;-77
2023/06/12 05:12:23;;;;;;;5.10;3.63;;;16.50;99.90;;;;;;5063591;28;20159;-77
2023/06/12 05:14:50;;;;;;;9.30;3.97;;;16.50;99.90;;;;;;5065981;28;20048;-77
2023/06/12 05:17:18;;;;;;;6.25;4.35;;;16.40;99.90;;;;;;5048590;28;20050;-77
2023/06/12 05:19:45;;;;;;;6.25;4.32;;;16.40;99.90;;;;;;5066178;28;20542;-77
2023/06/12 05:22:13;;;;;;;8.10;5.55;;;16.30;99.90;;;;;;5055869;28;20053;-77
2023/06/12 05:24:43;;;;;;;7.75;5.35;;;16.20;99.90;;;;;;5058892;28;20044;-78
2023/06/12 05:27:10;;;;;;;8.00;5.93;;;16.30;99.90;;;;;;5052093;28;20052;-78
2023/06/12 05:29:39;;;;;;;9.10;5.80;;;16.30;99.90;;;;;;5049993;28;20094;-77
2023/06/12 05:32:07;;;;;;;9.05;6.03;;;16.40;99.90;;;;;;5050800;28;20040;-76
2023/06/12 05:34:37;;;;;;;7.05;5.43;;;16.40;99.90;;;;;;5051181;28;20098;-77
2023/06/12 05:37:05;;;;;;;8.45;5.53;;;16.40;99.90;;;;;;5051030;28;20082;-77
2023/06/12 05:39:32;;;;;;;12.68;7.90;;;16.50;99.90;;;;;;5067190;28;20041;-77
2023/06/12 05:42:01;;;;;;;8.38;6.53;;;16.40;99.90;;;;;;5050381;28;20561;-77
2023/06/12 05:44:28;;;;;;;9.20;7.60;;;16.50;99.90;;;;;;5051895;28;20044;-77
2023/06/12 05:46:58;;;;;;;9.52;6.13;;;16.50;99.90;;;;;;5051622;28;20101;-77
2023/06/12 05:49:27;;;;;;;9.70;6.03;;;16.50;99.90;;;;;;5068470;28;20053;-76
2023/06/12 05:51:55;;;;;;;9.25;5.40;;;16.50;99.90;;;;;;5061791;28;20060;-77
2023/06/12 05:54:23;;;;;;;11.55;8.00;;;16.50;99.90;;;;;;5052211;28;20033;-77
2023/06/12 05:56:52;;;;;;;5.40;4.60;;;16.60;99.90;;;;;;5068682;28;20049;-76
2023/06/12 05:59:20;;;;;;;5.18;4.13;;;16.60;99.90;;;;;;5069515;28;20047;-78
2023/06/12 06:01:48;;;;;;;6.32;3.92;;;16.70;99.90;;;;;;5052312;28;20106;-75
2023/06/12 06:04:19;;;;;;;5.32;3.45;;;16.70;99.90;;;;;;5070289;28;20220;-76
2023/06/12 06:06:46;;;;;;;7.15;5.32;;;16.70;99.90;;;;;;5077285;28;20055;-75
2023/06/12 06:09:15;;;;;;;5.57;3.35;;;16.70;99.90;;;;;;5069332;28;20083;-76
2023/06/12 06:11:43;;;;;;;5.55;3.20;;;16.60;99.90;;;;;;5061775;28;20121;-76
2023/06/12 06:14:12;;;;;;;5.22;3.80;;;16.60;99.90;;;;;;5045184;28;20120;-77
2023/06/12 06:16:40;;;;;;;4.55;3.20;;;16.70;99.90;;;;;;5070402;28;20041;-77
2023/06/12 06:19:08;;;;;;;6.78;3.70;;;16.70;99.90;;;;;;5051891;28;20588;-75
2023/06/12 06:21:38;;;;;;;5.63;4.20;;;16.70;99.90;;;;;;5050960;28;20048;-76
2023/06/12 06:24:07;;;;;;;6.20;3.95;;;16.80;99.90;;;;;;5068468;28;20532;-77
2023/06/12 06:26:35;;;;;;;5.65;4.90;;;16.90;99.90;;;;;;5070375;28;20099;-75
2023/06/12 06:29:02;;;;;;;5.88;4.30;;;16.90;99.90;;;;;;5051459;28;20044;-77
2023/06/12 06:31:30;;;;;;;8.13;5.13;;;16.90;1.00;;;;;;5052644;28;20040;-76
2023/06/12 06:33:57;;;;;;;7.18;3.80;;;16.90;1.00;;;;;;5051148;28;20040;-77
2023/06/12 06:36:27;;;;;;;11.40;5.93;;;16.90;99.90;;;;;;5051880;28;20044;-76
2023/06/12 06:38:57;;;;;;;6.85;5.15;;;16.90;1.00;;;;;;5050871;28;20515;-77
2023/06/12 06:41:26;;;;;;;9.55;5.00;;;17.00;99.90;;;;;;5049658;28;20082;-78
2023/06/12 06:43:54;;;;;;;11.82;6.53;;;16.90;1.00;;;;;;5068660;28;20127;-77
2023/06/12 06:46:25;;;;;;;11.43;6.18;;;16.90;32.30;;;;;;5051630;28;20064;-76
2023/06/12 06:48:55;;;;;;;8.55;5.88;;;16.80;1.00;;;;;;5050802;28;20067;-76
2023/06/12 06:51:24;;;;;;;9.48;7.47;;;16.60;99.90;;;;;;5051594;28;20042;-77
2023/06/12 06:53:51;;;;;;;9.15;6.35;;;16.40;99.90;;;;;;5051289;28;20040;-76
2023/06/12 06:56:22;;;;;;;7.07;5.30;;;16.30;1.00;;;;;;5051211;28;20049;-76
2023/06/12 06:58:52;;;;;;;6.03;4.45;;;16.30;99.90;;;;;;5067854;28;20053;-75
2023/06/12 07:01:19;;;;;;;5.55;4.78;;;16.30;1.00;;;;;;5069326;28;20044;-76
2023/06/12 07:03:49;;;;;;;7.20;6.32;;;16.40;1.00;;;;;;5067765;28;20040;-75
2023/06/12 07:06:16;;;;;;;6.22;4.20;;;16.50;1.00;;;;;;5064807;28;20037;-78
2023/06/12 07:08:44;;;;;;;6.22;4.20;;;16.60;1.00;;;;;;5050253;28;20136;-75
2023/06/12 07:11:12;;;;;;;8.43;5.13;;;16.70;1.00;;;;;;5050881;28;20068;-79
2023/06/12 07:13:43;;;;;;;6.65;5.18;;;16.80;1.00;;;;;;5050710;28;20067;-79
2023/06/12 07:16:11;;;;;;;12.07;9.80;;;16.90;1.00;;;;;;5050760;28;20116;-78
2023/06/12 07:18:39;;;;;;;13.05;7.55;;;17.00;1.00;;;;;;5050435;28;20045;-78
2023/06/12 07:21:06;;;;;;;12.23;7.00;;;17.10;1.00;;;;;;5056893;28;20040;-78
2023/06/12 07:23:34;;;;;;;9.73;6.10;;;17.10;1.00;;;;;;5068839;28;20052;-78
2023/06/12 07:26:02;;;;;;;8.38;4.53;;;17.10;1.00;;;;;;5049730;28;20036;-78
2023/06/12 07:28:30;;;;;;;7.28;5.13;;;17.10;4.00;;;;;;5066802;28;20040;-77
2023/06/12 07:30:59;;;;;;;7.25;4.85;;;17.00;67.00;;;;;;5068356;28;20072;-78
2023/06/12 07:33:27;;;;;;;9.27;4.93;;;17.00;99.90;;;;;;5050785;28;20112;-79
2023/06/12 07:35:54;;;;;;;5.75;5.15;;;17.00;1.00;;;;;;5067030;28;20114;-79
2023/06/12 07:38:22;;;;;;;5.93;4.30;;;16.90;99.90;;;;;;5066543;28;20078;-80
2023/06/12 07:40:49;;;;;;;9.73;5.10;;;16.90;99.90;;;;;;5050489;28;20694;-78
2023/06/12 07:43:17;;;;;;;10.63;8.15;;;16.90;1.00;;;;;;5051083;28;20036;-78
2023/06/12 07:45:46;;;;;;;11.65;7.75;;;16.80;1.00;;;;;;5050800;28;20041;-77
2023/06/12 07:48:15;;;;;;;21.35;13.20;;;16.90;1.00;;;;;;5067275;28;20036;-76
2023/06/12 07:50:46;;;;;;;16.23;10.70;;;17.00;1.00;;;;;;5066333;28;20499;-80
2023/06/12 07:53:13;;;;;;;17.30;9.25;;;17.00;1.00;;;;;;5065902;28;20045;-79
2023/06/12 07:55:41;;;;;;;18.05;11.50;;;17.00;1.00;;;;;;5066728;28;20052;-81
2023/06/12 07:58:09;;;;;;;9.13;7.50;;;17.00;7.00;;;;;;5050141;28;20037;-80
2023/06/12 08:00:37;;;;;;;9.65;8.65;;;16.80;99.90;;;;;;5065467;28;20060;-80
2023/06/12 08:03:05;;;;;;;7.75;6.95;;;16.70;99.90;;;;;;5066665;28;20044;-81
2023/06/12 08:05:38;;;;;;;21.63;15.07;;;16.70;99.90;;;;;;5049257;28;20087;-78
2023/06/12 08:08:13;;;;;;;7.63;6.82;;;16.70;99.90;;;;;;5049475;28;20052;-80
2023/06/12 08:10:42;;;;;;;16.02;11.43;;;16.50;99.90;;;;;;5049364;28;20541;-79
2023/06/12 08:13:10;;;;;;;8.20;7.40;;;16.50;99.90;;;;;;5050455;28;20067;-80
2023/06/12 08:15:39;;;;;;;9.55;7.90;;;16.50;99.90;;;;;;5046610;28;20051;-80
2023/06/12 08:18:10;;;;;;;12.05;9.65;;;16.40;99.90;;;;;;5047907;28;20106;-82
2023/06/12 08:20:39;;;;;;;10.68;8.95;;;16.30;99.90;;;;;;5051212;28;20553;-80
2023/06/12 08:23:07;;;;;;;14.82;12.50;;;16.40;99.90;;;;;;5029922;28;20049;-81
2023/06/12 08:25:34;;;;;;;12.00;10.05;;;16.40;99.90;;;;;;5048894;28;20144;-79
2023/06/12 08:28:02;;;;;;;11.85;9.73;;;16.50;99.90;;;;;;5029560;28;20041;-79
2023/06/12 08:30:29;;;;;;;10.77;8.98;;;16.50;99.90;;;;;;5048305;28;20207;-80
2023/06/12 08:32:57;;;;;;;9.73;8.73;;;16.50;99.90;;;;;;5047605;28;20501;-80
2023/06/12 08:35:24;;;;;;;8.65;7.68;;;16.50;99.90;;;;;;5030195;28;20051;-80
2023/06/12 08:37:53;;;;;;;9.55;8.38;;;16.50;99.90;;;;;;5046795;28;20128;-79
2023/06/12 08:40:21;;;;;;;10.85;8.52;;;16.50;99.90;;;;;;5030232;28;20135;-77
2023/06/12 08:42:51;;;;;;;10.95;9.30;;;16.50;99.90;;;;;;5029682;28;20052;-80
2023/06/12 08:45:20;;;;;;;14.23;12.30;;;16.60;99.90;;;;;;5047607;28;20045;-80
2023/06/12 08:47:49;;;;;;;9.38;8.32;;;16.70;99.90;;;;;;5041548;28;20536;-79
2023/06/12 08:50:18;;;;;;;11.55;9.13;;;16.80;99.90;;;;;;5047437;28;20165;-79
2023/06/12 08:52:46;;;;;;;11.65;9.63;;;16.90;99.90;;;;;;5047018;28;20048;-79
2023/06/12 08:55:15;;;;;;;13.10;10.25;;;16.90;99.90;;;;;;5047967;28;20072;-79
2023/06/12 08:57:43;;;;;;;13.82;12.00;;;16.90;99.90;;;;;;5049692;28;20122;-79
2023/06/12 09:00:13;;;;;;;14.45;12.95;;;17.00;99.90;;;;;;5050931;28;20120;-79
2023/06/12 09:02:44;;;;;;;13.07;10.18;;;17.10;99.90;;;;;;5045438;28;20060;-79
2023/06/12 09:05:17;;;;;;;12.23;9.52;;;17.30;1.00;;;;;;5050378;28;20045;-79
2023/06/12 09:07:46;;;;;;;11.57;8.50;;;17.30;1.00;;;;;;5050833;28;20067;-78
2023/06/12 09:10:15;;;;;;;11.95;7.72;;;17.40;99.90;;;;;;5033250;28;20401;-78
2023/06/12 09:12:43;;;;;;;11.10;7.85;;;17.50;1.00;;;;;;5051689;28;20045;-78
2023/06/12 09:15:16;;;;;;;8.60;6.30;;;17.50;1.00;;;;;;5051325;28;20087;-78
2023/06/12 09:17:43;;;;;;;7.55;5.57;;;17.60;1.00;;;;;;5050704;28;20065;-78
2023/06/12 09:20:17;;;;;;;7.05;5.90;;;17.60;1.00;;;;;;5051954;28;20041;-78
2023/06/12 09:22:45;;;;;;;9.98;6.43;;;17.70;1.00;;;;;;5064552;28;20052;-79
2023/06/12 09:25:12;;;;;;;18.27;12.20;;;17.70;99.90;;;;;;5071400;28;20052;-79
2023/06/12 09:27:46;;;;;;;10.30;7.15;;;17.80;60.00;;;;;;5070077;28;20040;-79
2023/06/12 09:30:14;;;;;;;11.45;6.38;;;17.90;1.00;;;;;;5071050;28;20131;-79
2023/06/12 09:32:42;;;;;;;12.43;7.10;;;18.00;1.00;;;;;;5070391;28;20057;-77
2023/06/12 09:35:12;;;;;;;10.38;7.00;;;18.10;1.00;;;;;;5070109;28;20056;-78
2023/06/12 09:37:40;;;;;;;12.65;9.60;;;18.10;1.00;;;;;;5070763;28;20086;-78
2023/06/12 09:40:12;;;;;;;10.50;7.30;;;18.20;1.00;;;;;;5050341;28;20106;-79
2023/06/12 09:42:40;;;;;;;10.45;6.93;;;18.20;1.00;;;;;;5070702;28;20052;-79
2023/06/12 09:45:14;;;;;;;13.65;8.25;;;18.20;71.10;;;;;;5070757;28;20040;-79
2023/06/12 09:47:46;;;;;;;11.60;8.35;;;18.30;99.90;;;;;;5068724;28;20052;-79
2023/06/12 09:50:15;;;;;;;12.77;9.25;;;18.20;1.00;;;;;;5070192;28;20060;-78
2023/06/12 09:52:44;;;;;;;36.05;19.98;;;18.10;1.00;;;;;;5070588;28;20044;-78
2023/06/12 09:55:13;;;;;;;18.13;13.43;;;18.10;27.50;;;;;;5070767;28;20037;-78
2023/06/12 09:57:43;;;;;;;23.50;16.38;;;18.10;1.00;;;;;;5069384;28;20723;-80
2023/06/12 10:00:16;;;;;;;21.13;14.90;;;18.10;1.00;;;;;;5070547;28;20135;-77
2023/06/12 10:02:51;;;;;;;13.30;10.40;;;18.00;1.00;;;;;;5067735;28;20056;-79
2023/06/12 10:05:23;;;;;;;15.40;11.82;;;17.90;1.00;;;;;;5070483;28;20041;-79
2023/06/12 10:07:54;;;;;;;20.80;16.20;;;17.80;1.00;;;;;;5047759;28;20412;-79
2023/06/12 10:10:22;;;;;;;15.98;11.63;;;17.80;1.00;;;;;;5070709;28;20049;-79
2023/06/12 10:12:52;;;;;;;14.70;10.77;;;17.80;1.00;;;;;;5069560;28;20132;-79
2023/06/12 10:15:22;;;;;;;17.27;11.05;;;17.80;1.00;;;;;;5069729;28;20082;-78
2023/06/12 10:17:52;;;;;;;18.15;13.13;;;17.70;23.60;;;;;;5068729;28;20522;-79
2023/06/12 10:20:20;;;;;;;11.60;10.32;;;17.60;99.90;;;;;;5069553;28;20045;-79
2023/06/12 10:22:49;;;;;;;11.15;9.90;;;17.70;99.90;;;;;;5050206;28;20606;-78
2023/06/12 10:25:17;;;;;;;18.80;9.38;;;17.70;99.90;;;;;;5070296;28;20496;-79
2023/06/12 10:27:46;;;;;;;15.48;10.20;;;17.60;99.90;;;;;;5068794;28;20052;-78
2023/06/12 10:30:17;;;;;;;13.32;10.55;;;17.50;99.90;;;;;;5069203;28;20396;-78
2023/06/12 10:32:47;;;;;;;14.25;11.25;;;17.50;99.90;;;;;;5069181;28;20087;-79
2023/06/12 10:35:30;;;;;;;13.45;10.73;;;17.50;99.90;;;;;;5068890;28;20308;-79
2023/06/12 10:37:57;;;;;;;11.25;10.05;;;17.60;99.90;;;;;;5070247;28;20503;-77
2023/06/12 10:40:25;;;;;;;12.43;10.82;;;17.70;1.00;;;;;;5069706;28;20046;-78
2023/06/12 10:43:02;;;;;;;14.60;10.98;;;17.80;1.00;;;;;;5070327;28;20043;-78
2023/06/12 10:45:31;;;;;;;15.70;13.07;;;17.90;1.00;;;;;;5069200;28;20126;-79
2023/06/12 10:48:17;;;;;;;17.90;14.05;;;17.90;1.00;;;;;;5068397;28;20041;-78
2023/06/12 10:50:45;;;;;;;;;;;18.00;1.00;;;;;;5069064;28;20044;-78
2023/06/12 10:53:14;;;;;;;16.63;12.20;;;18.00;99.90;;;;;;5069925;28;19921;-78
2023/06/12 10:55:42;;;;;;;15.77;13.57;;;17.90;1.00;;;;;;5069243;28;20037;-80
2023/06/12 10:58:12;;;;;;;17.95;15.50;;;17.80;1.00;;;;;;5068589;28;20086;-79
2023/06/12 11:00:46;;;;;;;20.77;18.17;;;17.60;1.00;;;;;;5068221;28;20040;-79
2023/06/12 11:03:18;;;;;;;23.55;19.30;;;17.60;1.00;;;;;;5069176;28;20119;-79
2023/06/12 11:05:51;;;;;;;24.27;19.88;;;17.60;1.00;;;;;;5066494;28;20129;-78
2023/06/12 11:08:20;;;;;;;21.83;18.40;;;17.50;1.00;;;;;;5068784;28;20218;-78
2023/06/12 11:10:47;;;;;;;21.60;17.77;;;17.50;99.90;;;;;;5067802;28;20124;-78
2023/06/12 11:13:15;;;;;;;15.63;13.98;;;17.50;1.00;;;;;;5069636;28;20177;-78
2023/06/12 11:15:43;;;;;;;16.52;14.82;;;17.50;1.00;;;;;;5069252;28;20056;-78
2023/06/12 11:18:11;;;;;;;16.90;14.85;;;17.70;99.90;;;;;;5068576;28;20076;-78
2023/06/12 11:20:42;;;;;;;16.23;14.40;;;17.90;1.00;;;;;;5057090;28;20396;-78
2023/06/12 11:23:10;;;;;;;16.10;14.30;;;17.90;99.90;;;;;;5067859;28;20051;-78
2023/06/12 11:25:44;;;;;;;15.23;13.73;;;17.90;1.00;;;;;;5068009;28;20515;-78
2023/06/12 11:28:12;;;;;;;17.10;13.02;;;17.90;1.00;;;;;;5048187;28;20048;-78
2023/06/12 11:30:40;;;;;;;19.60;14.07;;;17.90;99.90;;;;;;5068230;28;20476;-78
2023/06/12 11:33:10;;;;;;;17.42;15.27;;;18.10;99.90;;;;;;5067160;28;20060;-79
2023/06/12 11:35:43;;;;;;;13.15;10.98;;;18.50;1.00;;;;;;5048524;28;20541;-77
2023/06/12 11:38:13;;;;;;;13.60;10.02;;;18.70;1.00;;;;;;5065021;28;20044;-78
2023/06/12 11:40:42;;;;;;;15.75;10.90;;;18.80;99.90;;;;;;5069514;28;20060;-79
2023/06/12 11:43:09;;;;;;;14.00;12.52;;;18.90;99.90;;;;;;5068080;28;20041;-79
2023/06/12 11:45:41;;;;;;;13.30;9.98;;;19.20;94.90;;;;;;5067482;28;20054;-78
2023/06/12 11:48:14;;;;;;;15.07;12.35;;;19.50;1.00;;;;;;5056562;28;20043;-79
2023/06/12 11:50:44;;;;;;;11.48;10.38;;;19.50;1.00;;;;;;5068029;28;20115;-77
2023/06/12 11:53:13;;;;;;;18.98;14.20;;;19.50;99.90;;;;;;5067611;28;20052;-78
2023/06/12 11:55:40;;;;;;;12.20;9.85;;;19.70;99.90;;;;;;5041587;28;20033;-78
2023/06/12 11:58:08;;;;;;;9.98;8.98;;;19.70;99.90;;;;;;5067847;28;20039;-78
2023/06/12 12:00:39;;;;;;;11.43;10.27;;;19.80;99.90;;;;;;5067770;28;20045;-78
2023/06/12 12:03:09;;;;;;;13.48;12.13;;;19.90;99.90;;;;;;5067633;28;20112;-78
2023/06/12 12:05:44;;;;;;;11.98;10.77;;;20.00;99.90;;;;;;5049848;28;20048;-84
2023/06/12 12:08:16;;;;;;;16.65;11.18;;;20.20;99.90;;;;;;5067826;28;20099;-82
2023/06/12 12:10:44;;;;;;;10.63;9.55;;;20.10;99.90;;;;;;5067564;28;20497;-81
2023/06/12 12:13:12;;;;;;;11.65;9.85;;;20.10;91.40;;;;;;5048840;28;20041;-80
2023/06/12 12:15:41;;;;;;;14.55;10.20;;;20.10;5.30;;;;;;5062536;28;20032;-78
2023/06/12 12:18:12;;;;;;;10.98;9.73;;;19.90;1.00;;;;;;5065502;28;20039;-79
2023/06/12 12:20:40;;;;;;;12.23;11.02;;;19.50;79.30;;;;;;5067126;28;20052;-78
2023/06/12 12:23:12;;;;;;;12.73;11.20;;;19.30;99.90;;;;;;5068134;28;20044;-79
2023/06/12 12:25:42;;;;;;;24.35;21.23;;;19.10;99.90;;;;;;5068553;28;20041;-78
2023/06/12 12:28:09;;;;;;;12.68;9.40;;;19.10;99.90;;;;;;5068180;28;20488;-80
2023/06/12 12:30:37;;;;;;;13.60;9.95;;;19.20;99.90;;;;;;5068490;28;20044;-79
2023/06/12 12:33:05;;;;;;;9.93;8.77;;;19.20;99.90;;;;;;5066879;28;20054;-79
2023/06/12 12:35:32;;;;;;;11.85;9.80;;;19.20;99.90;;;;;;5047177;28;20059;-79
2023/06/12 12:38:00;;;;;;;11.10;9.75;;;19.20;99.90;;;;;;5064723;28;20029;-80
2023/06/12 12:40:28;;;;;;;15.85;13.18;;;19.30;99.90;;;;;;5067838;28;20117;-79
2023/06/12 12:42:58;;;;;;;13.60;11.68;;;19.30;99.90;;;;;;5050062;28;20141;-78
2023/06/12 12:45:26;;;;;;;11.43;10.30;;;19.20;99.90;;;;;;5067186;28;20041;-78
2023/06/12 12:47:54;;;;;;;12.63;11.25;;;19.10;1.00;;;;;;5044654;28;20041;-79
2023/06/12 12:50:21;;;;;;;14.10;10.90;;;19.20;1.00;;;;;;5066755;28;20044;-78
2023/06/12 12:52:49;;;;;;;12.82;11.38;;;19.30;1.00;;;;;;5068132;28;20143;-78